sensor_id;sensor_type;location;lat;lon;timestamp;P1;durP1;ratioP1;P2;durP2;ratioP2
2486;SDS011;1254;49.144;8.212;2023-05-19T00:01:00;8.50;;;3.63;;
2486;SDS011;1254;49.144;8.212;2023-05-19T00:03:28;5.35;;;2.78;;
2486;SDS011;1254;49.144;8.212;2023-05-19T00:05:58;3.67;;;3.15;;
2486;SDS011;1254;49.144;8.212;2023-05-19T00:08:28;3.33;;;3.00;;
2486;SDS011;1254;49.144;8.212;2023-05-19T00:10:57;6.55;;;3.17;;
2486;SDS011;1254;49.144;8.212;2023-05-19T00:13:26;4.15;;;2.95;;
2486;SDS011;1254;49.144;8.212;2023-05-19T00:15:56;7.07;;;3.30;;
2486;SDS011;1254;49.144;8.212;2023-05-19T00:18:24;5.10;;;3.47;;
2486;SDS011;1254;49.144;8.212;2023-05-19T00:20:54;4.43;;;3.00;;
2486;SDS011;1254;49.144;8.212;2023-05-19T00:23:23;6.82;;;3.60;;
2486;SDS011;1254;49.144;8.212;2023-05-19T00:25:51;10.95;;;4.93;;
2486;SDS011;1254;49.144;8.212;2023-05-19T00:28:19;4.80;;;3.25;;
2486;SDS011;1254;49.144;8.212;2023-05-19T00:30:47;5.78;;;3.38;;
2486;SDS011;1254;49.144;8.212;2023-05-19T00:33:17;5.07;;;3.72;;
2486;SDS011;1254;49.144;8.212;2023-05-19T00:35:45;4.25;;;2.95;;
2486;SDS011;1254;49.144;8.212;2023-05-19T00:38:13;7.72;;;2.95;;
2486;SDS011;1254;49.144;8.212;2023-05-19T00:40:42;10.10;;;3.40;;
2486;SDS011;1254;49.144;8.212;2023-05-19T00:43:11;8.07;;;3.88;;
2486;SDS011;1254;49.144;8.212;2023-05-19T00:45:39;4.30;;;3.15;;
2486;SDS011;1254;49.144;8.212;2023-05-19T00:48:08;4.43;;;2.90;;
2486;SDS011;1254;49.144;8.212;2023-05-19T00:50:37;4.95;;;3.30;;
2486;SDS011;1254;49.144;8.212;2023-05-19T00:53:05;3.20;;;2.95;;
2486;SDS011;1254;49.144;8.212;2023-05-19T00:55:35;7.10;;;3.35;;
2486;SDS011;1254;49.144;8.212;2023-05-19T00:58:05;3.40;;;3.10;;
2486;SDS011;1254;49.144;8.212;2023-05-19T01:00:34;5.63;;;3.25;;
2486;SDS011;1254;49.144;8.212;2023-05-19T01:03:03;4.53;;;2.70;;
2486;SDS011;1254;49.144;8.212;2023-05-19T01:05:38;5.90;;;2.90;;
2486;SDS011;1254;49.144;8.212;2023-05-19T01:08:06;6.70;;;3.75;;
2486;SDS011;1254;49.144;8.212;2023-05-19T01:10:36;5.35;;;3.17;;
2486;SDS011;1254;49.144;8.212;2023-05-19T01:13:04;3.80;;;2.97;;
2486;SDS011;1254;49.144;8.212;2023-05-19T01:15:37;6.55;;;3.03;;
2486;SDS011;1254;49.144;8.212;2023-05-19T01:18:07;4.03;;;2.88;;
2486;SDS011;1254;49.144;8.212;2023-05-19T01:20:40;3.88;;;3.17;;
2486;SDS011;1254;49.144;8.212;2023-05-19T01:23:17;5.32;;;2.90;;
2486;SDS011;1254;49.144;8.212;2023-05-19T01:28:49;8.75;;;3.30;;
2486;SDS011;1254;49.144;8.212;2023-05-19T01:31:21;3.75;;;3.45;;
2486;SDS011;1254;49.144;8.212;2023-05-19T01:33:51;9.82;;;3.65;;
2486;SDS011;1254;49.144;8.212;2023-05-19T01:36:20;4.30;;;2.95;;
2486;SDS011;1254;49.144;8.212;2023-05-19T01:38:49;3.30;;;2.80;;
2486;SDS011;1254;49.144;8.212;2023-05-19T01:41:18;5.18;;;2.50;;
2486;SDS011;1254;49.144;8.212;2023-05-19T01:43:47;10.27;;;3.28;;
2486;SDS011;1254;49.144;8.212;2023-05-19T01:46:15;3.70;;;3.40;;
2486;SDS011;1254;49.144;8.212;2023-05-19T01:48:45;4.50;;;3.20;;
2486;SDS011;1254;49.144;8.212;2023-05-19T01:51:14;4.38;;;3.20;;
2486;SDS011;1254;49.144;8.212;2023-05-19T01:53:42;7.63;;;3.55;;
2486;SDS011;1254;49.144;8.212;2023-05-19T01:56:11;6.10;;;3.03;;
2486;SDS011;1254;49.144;8.212;2023-05-19T01:58:43;6.40;;;2.72;;
2486;SDS011;1254;49.144;8.212;2023-05-19T02:01:15;3.15;;;2.83;;
2486;SDS011;1254;49.144;8.212;2023-05-19T02:03:50;4.80;;;3.45;;
2486;SDS011;1254;49.144;8.212;2023-05-19T02:06:25;3.10;;;2.83;;
2486;SDS011;1254;49.144;8.212;2023-05-19T02:08:59;5.78;;;3.10;;
2486;SDS011;1254;49.144;8.212;2023-05-19T02:11:34;6.63;;;3.20;;
2486;SDS011;1254;49.144;8.212;2023-05-19T02:14:06;6.35;;;3.13;;
2486;SDS011;1254;49.144;8.212;2023-05-19T02:16:35;9.25;;;3.45;;
2486;SDS011;1254;49.144;8.212;2023-05-19T02:19:06;10.63;;;3.15;;
2486;SDS011;1254;49.144;8.212;2023-05-19T02:21:47;4.45;;;2.80;;
2486;SDS011;1254;49.144;8.212;2023-05-19T02:24:15;10.25;;;3.83;;
2486;SDS011;1254;49.144;8.212;2023-05-19T02:26:43;3.92;;;2.63;;
2486;SDS011;1254;49.144;8.212;2023-05-19T02:29:11;5.43;;;2.42;;
2486;SDS011;1254;49.144;8.212;2023-05-19T02:31:39;5.25;;;3.50;;
2486;SDS011;1254;49.144;8.212;2023-05-19T02:34:09;4.00;;;3.05;;
2486;SDS011;1254;49.144;8.212;2023-05-19T02:36:37;4.22;;;2.38;;
2486;SDS011;1254;49.144;8.212;2023-05-19T02:39:08;8.65;;;3.13;;
2486;SDS011;1254;49.144;8.212;2023-05-19T02:41:37;8.45;;;3.20;;
2486;SDS011;1254;49.144;8.212;2023-05-19T02:44:05;4.70;;;2.70;;
2486;SDS011;1254;49.144;8.212;2023-05-19T02:46:33;2.88;;;2.67;;
2486;SDS011;1254;49.144;8.212;2023-05-19T02:49:02;2.85;;;2.55;;
2486;SDS011;1254;49.144;8.212;2023-05-19T02:51:31;6.10;;;2.83;;
2486;SDS011;1254;49.144;8.212;2023-05-19T02:54:00;5.45;;;2.97;;
2486;SDS011;1254;49.144;8.212;2023-05-19T02:56:28;5.30;;;3.17;;
2486;SDS011;1254;49.144;8.212;2023-05-19T02:58:56;6.03;;;2.85;;
2486;SDS011;1254;49.144;8.212;2023-05-19T03:01:24;2.53;;;2.33;;
2486;SDS011;1254;49.144;8.212;2023-05-19T03:03:52;6.53;;;2.85;;
2486;SDS011;1254;49.144;8.212;2023-05-19T03:06:20;5.20;;;3.58;;
2486;SDS011;1254;49.144;8.212;2023-05-19T03:08:50;6.15;;;2.95;;
2486;SDS011;1254;49.144;8.212;2023-05-19T03:11:19;2.88;;;2.53;;
2486;SDS011;1254;49.144;8.212;2023-05-19T03:13:48;9.55;;;4.05;;
2486;SDS011;1254;49.144;8.212;2023-05-19T03:16:16;3.60;;;2.70;;
2486;SDS011;1254;49.144;8.212;2023-05-19T03:18:44;3.30;;;2.25;;
2486;SDS011;1254;49.144;8.212;2023-05-19T03:21:13;4.60;;;2.90;;
2486;SDS011;1254;49.144;8.212;2023-05-19T03:23:41;4.10;;;2.38;;
2486;SDS011;1254;49.144;8.212;2023-05-19T03:26:11;6.03;;;3.13;;
2486;SDS011;1254;49.144;8.212;2023-05-19T03:28:39;3.55;;;2.60;;
2486;SDS011;1254;49.144;8.212;2023-05-19T03:31:07;11.23;;;2.90;;
2486;SDS011;1254;49.144;8.212;2023-05-19T03:33:38;8.40;;;3.05;;
2486;SDS011;1254;49.144;8.212;2023-05-19T03:36:06;2.65;;;2.40;;
2486;SDS011;1254;49.144;8.212;2023-05-19T03:38:37;2.53;;;2.33;;
2486;SDS011;1254;49.144;8.212;2023-05-19T03:41:06;4.05;;;3.20;;
2486;SDS011;1254;49.144;8.212;2023-05-19T03:43:35;7.57;;;3.10;;
2486;SDS011;1254;49.144;8.212;2023-05-19T03:46:06;3.20;;;2.85;;
2486;SDS011;1254;49.144;8.212;2023-05-19T03:48:57;3.08;;;2.88;;
2486;SDS011;1254;49.144;8.212;2023-05-19T03:51:25;8.25;;;3.15;;
2486;SDS011;1254;49.144;8.212;2023-05-19T03:54:01;6.55;;;3.90;;
2486;SDS011;1254;49.144;8.212;2023-05-19T03:56:29;7.85;;;3.15;;
2486;SDS011;1254;49.144;8.212;2023-05-19T03:59:00;6.15;;;3.35;;
2486;SDS011;1254;49.144;8.212;2023-05-19T04:01:31;3.42;;;2.92;;
2486;SDS011;1254;49.144;8.212;2023-05-19T04:03:59;11.00;;;3.15;;
2486;SDS011;1254;49.144;8.212;2023-05-19T04:06:28;5.18;;;2.72;;
2486;SDS011;1254;49.144;8.212;2023-05-19T04:08:56;2.90;;;2.70;;
2486;SDS011;1254;49.144;8.212;2023-05-19T04:11:25;5.10;;;2.65;;
2486;SDS011;1254;49.144;8.212;2023-05-19T04:13:53;5.60;;;3.33;;
2486;SDS011;1254;49.144;8.212;2023-05-19T04:16:23;13.27;;;3.00;;
2486;SDS011;1254;49.144;8.212;2023-05-19T04:18:51;3.58;;;2.88;;
2486;SDS011;1254;49.144;8.212;2023-05-19T04:21:19;4.68;;;2.70;;
2486;SDS011;1254;49.144;8.212;2023-05-19T04:23:48;3.85;;;3.13;;
2486;SDS011;1254;49.144;8.212;2023-05-19T04:26:16;10.32;;;3.30;;
2486;SDS011;1254;49.144;8.212;2023-05-19T04:28:47;11.50;;;2.83;;
2486;SDS011;1254;49.144;8.212;2023-05-19T04:31:15;4.45;;;3.40;;
2486;SDS011;1254;49.144;8.212;2023-05-19T04:33:45;5.25;;;3.20;;
2486;SDS011;1254;49.144;8.212;2023-05-19T04:36:14;6.38;;;2.35;;
2486;SDS011;1254;49.144;8.212;2023-05-19T04:38:47;3.55;;;2.75;;
2486;SDS011;1254;49.144;8.212;2023-05-19T04:41:19;3.72;;;2.60;;
2486;SDS011;1254;49.144;8.212;2023-05-19T04:43:48;4.72;;;2.83;;
2486;SDS011;1254;49.144;8.212;2023-05-19T04:46:18;5.45;;;2.75;;
2486;SDS011;1254;49.144;8.212;2023-05-19T04:48:50;9.13;;;3.20;;
2486;SDS011;1254;49.144;8.212;2023-05-19T04:51:20;4.00;;;2.83;;
2486;SDS011;1254;49.144;8.212;2023-05-19T04:53:54;8.27;;;3.38;;
2486;SDS011;1254;49.144;8.212;2023-05-19T04:56:22;6.10;;;3.10;;
2486;SDS011;1254;49.144;8.212;2023-05-19T04:58:53;8.82;;;3.08;;
2486;SDS011;1254;49.144;8.212;2023-05-19T05:01:21;8.88;;;3.70;;
2486;SDS011;1254;49.144;8.212;2023-05-19T05:03:53;5.05;;;2.72;;
2486;SDS011;1254;49.144;8.212;2023-05-19T05:06:24;10.20;;;3.20;;
2486;SDS011;1254;49.144;8.212;2023-05-19T05:08:53;21.80;;;4.00;;
2486;SDS011;1254;49.144;8.212;2023-05-19T05:11:22;9.27;;;2.60;;
2486;SDS011;1254;49.144;8.212;2023-05-19T05:13:51;6.05;;;2.60;;
2486;SDS011;1254;49.144;8.212;2023-05-19T05:16:24;3.75;;;2.80;;
2486;SDS011;1254;49.144;8.212;2023-05-19T05:18:55;6.63;;;2.72;;
2486;SDS011;1254;49.144;8.212;2023-05-19T05:21:23;6.45;;;3.08;;
2486;SDS011;1254;49.144;8.212;2023-05-19T05:23:52;3.70;;;2.65;;
2486;SDS011;1254;49.144;8.212;2023-05-19T05:26:23;6.63;;;3.78;;
2486;SDS011;1254;49.144;8.212;2023-05-19T05:28:55;5.38;;;3.20;;
2486;SDS011;1254;49.144;8.212;2023-05-19T05:31:24;8.93;;;3.60;;
2486;SDS011;1254;49.144;8.212;2023-05-19T05:33:52;3.60;;;2.55;;
2486;SDS011;1254;49.144;8.212;2023-05-19T05:36:26;5.80;;;2.95;;
2486;SDS011;1254;49.144;8.212;2023-05-19T05:38:54;9.48;;;3.30;;
2486;SDS011;1254;49.144;8.212;2023-05-19T05:41:22;8.27;;;2.40;;
2486;SDS011;1254;49.144;8.212;2023-05-19T05:43:52;10.40;;;3.22;;
2486;SDS011;1254;49.144;8.212;2023-05-19T05:46:21;4.88;;;3.00;;
2486;SDS011;1254;49.144;8.212;2023-05-19T05:48:49;3.15;;;2.58;;
2486;SDS011;1254;49.144;8.212;2023-05-19T05:51:19;5.70;;;3.20;;
2486;SDS011;1254;49.144;8.212;2023-05-19T05:53:50;7.00;;;2.70;;
2486;SDS011;1254;49.144;8.212;2023-05-19T05:56:19;2.88;;;2.60;;
2486;SDS011;1254;49.144;8.212;2023-05-19T05:58:51;4.82;;;2.83;;
2486;SDS011;1254;49.144;8.212;2023-05-19T06:01:20;4.13;;;2.40;;
2486;SDS011;1254;49.144;8.212;2023-05-19T06:03:49;4.70;;;2.90;;
2486;SDS011;1254;49.144;8.212;2023-05-19T06:06:20;3.67;;;3.38;;
2486;SDS011;1254;49.144;8.212;2023-05-19T06:08:50;10.48;;;5.18;;
2486;SDS011;1254;49.144;8.212;2023-05-19T06:11:19;5.60;;;3.40;;
2486;SDS011;1254;49.144;8.212;2023-05-19T06:13:48;3.33;;;3.00;;
2486;SDS011;1254;49.144;8.212;2023-05-19T06:16:33;6.00;;;2.97;;
2486;SDS011;1254;49.144;8.212;2023-05-19T06:19:02;5.18;;;2.95;;
2486;SDS011;1254;49.144;8.212;2023-05-19T06:21:30;3.45;;;3.05;;
2486;SDS011;1254;49.144;8.212;2023-05-19T06:24:00;7.57;;;3.45;;
2486;SDS011;1254;49.144;8.212;2023-05-19T06:26:28;5.80;;;3.28;;
2486;SDS011;1254;49.144;8.212;2023-05-19T06:28:57;7.03;;;2.50;;
2486;SDS011;1254;49.144;8.212;2023-05-19T06:31:25;8.25;;;3.25;;
2486;SDS011;1254;49.144;8.212;2023-05-19T06:33:57;10.18;;;3.25;;
2486;SDS011;1254;49.144;8.212;2023-05-19T06:36:25;7.27;;;3.23;;
2486;SDS011;1254;49.144;8.212;2023-05-19T06:38:56;10.80;;;2.97;;
2486;SDS011;1254;49.144;8.212;2023-05-19T06:41:29;3.97;;;3.60;;
2486;SDS011;1254;49.144;8.212;2023-05-19T06:43:58;8.32;;;4.78;;
2486;SDS011;1254;49.144;8.212;2023-05-19T06:46:29;3.80;;;3.03;;
2486;SDS011;1254;49.144;8.212;2023-05-19T06:48:58;7.17;;;3.07;;
2486;SDS011;1254;49.144;8.212;2023-05-19T06:51:29;5.70;;;3.30;;
2486;SDS011;1254;49.144;8.212;2023-05-19T06:53:59;9.43;;;3.17;;
2486;SDS011;1254;49.144;8.212;2023-05-19T06:56:29;3.20;;;3.00;;
2486;SDS011;1254;49.144;8.212;2023-05-19T06:58:57;8.63;;;3.50;;
2486;SDS011;1254;49.144;8.212;2023-05-19T07:01:31;10.03;;;3.70;;
2486;SDS011;1254;49.144;8.212;2023-05-19T07:04:00;4.80;;;3.03;;
2486;SDS011;1254;49.144;8.212;2023-05-19T07:06:29;4.90;;;3.27;;
2486;SDS011;1254;49.144;8.212;2023-05-19T07:08:57;5.10;;;3.73;;
2486;SDS011;1254;49.144;8.212;2023-05-19T07:11:25;7.60;;;3.70;;
2486;SDS011;1254;49.144;8.212;2023-05-19T07:13:55;6.83;;;3.43;;
2486;SDS011;1254;49.144;8.212;2023-05-19T07:16:27;11.87;;;4.33;;
2486;SDS011;1254;49.144;8.212;2023-05-19T07:18:55;7.57;;;3.40;;
2486;SDS011;1254;49.144;8.212;2023-05-19T07:21:23;5.77;;;3.93;;
2486;SDS011;1254;49.144;8.212;2023-05-19T07:23:52;6.70;;;3.63;;
2486;SDS011;1254;49.144;8.212;2023-05-19T07:26:20;14.00;;;5.17;;
2486;SDS011;1254;49.144;8.212;2023-05-19T07:28:48;8.50;;;4.13;;
2486;SDS011;1254;49.144;8.212;2023-05-19T07:31:18;10.93;;;3.93;;
2486;SDS011;1254;49.144;8.212;2023-05-19T07:33:46;9.43;;;3.90;;
2486;SDS011;1254;49.144;8.212;2023-05-19T07:36:15;6.50;;;4.00;;
2486;SDS011;1254;49.144;8.212;2023-05-19T07:38:44;4.90;;;4.50;;
2486;SDS011;1254;49.144;8.212;2023-05-19T07:41:12;7.93;;;5.40;;
2486;SDS011;1254;49.144;8.212;2023-05-19T07:43:41;12.87;;;4.47;;
2486;SDS011;1254;49.144;8.212;2023-05-19T07:46:09;7.43;;;3.83;;
2486;SDS011;1254;49.144;8.212;2023-05-19T07:48:39;7.23;;;3.97;;
2486;SDS011;1254;49.144;8.212;2023-05-19T07:51:07;4.90;;;4.60;;
2486;SDS011;1254;49.144;8.212;2023-05-19T07:53:35;6.40;;;5.13;;
2486;SDS011;1254;49.144;8.212;2023-05-19T07:56:03;4.87;;;3.57;;
2486;SDS011;1254;49.144;8.212;2023-05-19T07:58:32;4.23;;;3.83;;
2486;SDS011;1254;49.144;8.212;2023-05-19T08:01:00;5.17;;;4.10;;
2486;SDS011;1254;49.144;8.212;2023-05-19T08:03:28;4.27;;;3.97;;
2486;SDS011;1254;49.144;8.212;2023-05-19T08:05:58;5.27;;;4.00;;
2486;SDS011;1254;49.144;8.212;2023-05-19T08:08:26;4.60;;;4.20;;
2486;SDS011;1254;49.144;8.212;2023-05-19T08:10:54;5.90;;;4.23;;
2486;SDS011;1254;49.144;8.212;2023-05-19T08:13:22;4.43;;;3.50;;
2486;SDS011;1254;49.144;8.212;2023-05-19T08:15:51;5.53;;;4.50;;
2486;SDS011;1254;49.144;8.212;2023-05-19T08:18:24;5.70;;;5.10;;
2486;SDS011;1254;49.144;8.212;2023-05-19T08:20:52;6.57;;;5.00;;
2486;SDS011;1254;49.144;8.212;2023-05-19T08:23:22;5.70;;;4.03;;
2486;SDS011;1254;49.144;8.212;2023-05-19T08:25:50;4.97;;;4.20;;
2486;SDS011;1254;49.144;8.212;2023-05-19T08:28:18;5.23;;;4.30;;
2486;SDS011;1254;49.144;8.212;2023-05-19T08:30:47;4.13;;;3.73;;
2486;SDS011;1254;49.144;8.212;2023-05-19T08:33:17;7.10;;;4.50;;
2486;SDS011;1254;49.144;8.212;2023-05-19T08:35:46;5.20;;;4.73;;
2486;SDS011;1254;49.144;8.212;2023-05-19T08:38:15;5.40;;;5.00;;
2486;SDS011;1254;49.144;8.212;2023-05-19T08:40:45;7.37;;;4.37;;
2486;SDS011;1254;49.144;8.212;2023-05-19T08:43:14;6.07;;;5.47;;
2486;SDS011;1254;49.144;8.212;2023-05-19T08:45:42;10.53;;;4.80;;
2486;SDS011;1254;49.144;8.212;2023-05-19T08:48:11;5.20;;;4.73;;
2486;SDS011;1254;49.144;8.212;2023-05-19T08:50:40;7.00;;;4.37;;
2486;SDS011;1254;49.144;8.212;2023-05-19T08:53:13;9.53;;;5.03;;
2486;SDS011;1254;49.144;8.212;2023-05-19T08:55:42;4.73;;;4.30;;
2486;SDS011;1254;49.144;8.212;2023-05-19T08:58:15;6.17;;;4.40;;
2486;SDS011;1254;49.144;8.212;2023-05-19T09:00:45;6.07;;;4.80;;
2486;SDS011;1254;49.144;8.212;2023-05-19T09:03:14;7.90;;;4.77;;
2486;SDS011;1254;49.144;8.212;2023-05-19T09:05:43;6.50;;;5.20;;
2486;SDS011;1254;49.144;8.212;2023-05-19T09:08:11;8.33;;;4.30;;
2486;SDS011;1254;49.144;8.212;2023-05-19T09:10:40;6.00;;;4.47;;
2486;SDS011;1254;49.144;8.212;2023-05-19T09:13:08;6.37;;;4.60;;
2486;SDS011;1254;49.144;8.212;2023-05-19T09:15:38;7.60;;;5.30;;
2486;SDS011;1254;49.144;8.212;2023-05-19T09:18:06;7.43;;;5.47;;
2486;SDS011;1254;49.144;8.212;2023-05-19T09:20:35;9.13;;;4.97;;
2486;SDS011;1254;49.144;8.212;2023-05-19T09:23:04;6.47;;;4.70;;
2486;SDS011;1254;49.144;8.212;2023-05-19T09:25:32;5.30;;;4.80;;
2486;SDS011;1254;49.144;8.212;2023-05-19T09:28:01;5.03;;;4.53;;
2486;SDS011;1254;49.144;8.212;2023-05-19T09:30:29;8.90;;;5.90;;
2486;SDS011;1254;49.144;8.212;2023-05-19T09:32:59;7.97;;;4.90;;
2486;SDS011;1254;49.144;8.212;2023-05-19T09:35:29;6.07;;;4.80;;
2486;SDS011;1254;49.144;8.212;2023-05-19T09:37:57;5.67;;;5.17;;
2486;SDS011;1254;49.144;8.212;2023-05-19T09:40:27;5.73;;;4.77;;
2486;SDS011;1254;49.144;8.212;2023-05-19T09:42:55;6.60;;;4.90;;
2486;SDS011;1254;49.144;8.212;2023-05-19T09:45:25;6.50;;;4.90;;
2486;SDS011;1254;49.144;8.212;2023-05-19T09:47:53;5.40;;;5.00;;
2486;SDS011;1254;49.144;8.212;2023-05-19T09:50:23;7.33;;;5.00;;
2486;SDS011;1254;49.144;8.212;2023-05-19T09:52:55;5.23;;;4.83;;
2486;SDS011;1254;49.144;8.212;2023-05-19T09:55:24;5.20;;;4.70;;
2486;SDS011;1254;49.144;8.212;2023-05-19T09:57:53;6.87;;;4.60;;
2486;SDS011;1254;49.144;8.212;2023-05-19T10:00:22;5.53;;;4.70;;
2486;SDS011;1254;49.144;8.212;2023-05-19T10:02:50;4.60;;;4.20;;
2486;SDS011;1254;49.144;8.212;2023-05-19T10:05:19;8.07;;;4.80;;
2486;SDS011;1254;49.144;8.212;2023-05-19T10:07:49;5.93;;;4.80;;
2486;SDS011;1254;49.144;8.212;2023-05-19T10:10:17;6.33;;;4.90;;
2486;SDS011;1254;49.144;8.212;2023-05-19T10:12:46;6.47;;;4.60;;
2486;SDS011;1254;49.144;8.212;2023-05-19T10:15:15;5.00;;;4.70;;
2486;SDS011;1254;49.144;8.212;2023-05-19T10:17:43;9.40;;;5.50;;
2486;SDS011;1254;49.144;8.212;2023-05-19T10:20:12;5.90;;;5.33;;
2486;SDS011;1254;49.144;8.212;2023-05-19T10:22:40;6.83;;;5.70;;
2486;SDS011;1254;49.144;8.212;2023-05-19T10:25:11;4.87;;;4.50;;
2486;SDS011;1254;49.144;8.212;2023-05-19T10:27:41;7.53;;;6.67;;
2486;SDS011;1254;49.144;8.212;2023-05-19T10:30:11;5.37;;;4.93;;
2486;SDS011;1254;49.144;8.212;2023-05-19T10:32:41;5.50;;;4.93;;
2486;SDS011;1254;49.144;8.212;2023-05-19T10:37:58;6.43;;;5.10;;
2486;SDS011;1254;49.144;8.212;2023-05-19T10:40:32;6.47;;;5.00;;
2486;SDS011;1254;49.144;8.212;2023-05-19T10:43:12;5.40;;;4.90;;
2486;SDS011;1254;49.144;8.212;2023-05-19T10:45:44;5.87;;;5.13;;
2486;SDS011;1254;49.144;8.212;2023-05-19T10:48:14;5.33;;;4.87;;
2486;SDS011;1254;49.144;8.212;2023-05-19T10:50:43;7.10;;;5.40;;
2486;SDS011;1254;49.144;8.212;2023-05-19T10:53:15;8.13;;;5.67;;
2486;SDS011;1254;49.144;8.212;2023-05-19T10:55:51;7.87;;;4.93;;
2486;SDS011;1254;49.144;8.212;2023-05-19T10:58:48;4.90;;;4.47;;
2486;SDS011;1254;49.144;8.212;2023-05-19T11:01:17;6.03;;;5.40;;
2486;SDS011;1254;49.144;8.212;2023-05-19T11:03:47;5.47;;;5.10;;
2486;SDS011;1254;49.144;8.212;2023-05-19T11:06:21;8.10;;;4.97;;
2486;SDS011;1254;49.144;8.212;2023-05-19T11:08:51;7.47;;;5.40;;
2486;SDS011;1254;49.144;8.212;2023-05-19T11:11:21;5.07;;;4.67;;
2486;SDS011;1254;49.144;8.212;2023-05-19T11:13:50;5.37;;;4.77;;
2486;SDS011;1254;49.144;8.212;2023-05-19T11:16:18;5.43;;;4.97;;
2486;SDS011;1254;49.144;8.212;2023-05-19T11:18:47;6.90;;;5.17;;
2486;SDS011;1254;49.144;8.212;2023-05-19T11:21:18;7.20;;;5.03;;
2486;SDS011;1254;49.144;8.212;2023-05-19T11:23:46;5.20;;;4.70;;
2486;SDS011;1254;49.144;8.212;2023-05-19T11:26:14;5.37;;;4.90;;
2486;SDS011;1254;49.144;8.212;2023-05-19T11:28:44;5.53;;;5.03;;
2486;SDS011;1254;49.144;8.212;2023-05-19T11:31:15;5.60;;;5.10;;
2486;SDS011;1254;49.144;8.212;2023-05-19T11:33:48;5.93;;;5.00;;
2486;SDS011;1254;49.144;8.212;2023-05-19T11:36:18;6.50;;;5.00;;
2486;SDS011;1254;49.144;8.212;2023-05-19T11:38:47;7.53;;;5.60;;
2486;SDS011;1254;49.144;8.212;2023-05-19T11:41:16;5.77;;;5.33;;
2486;SDS011;1254;49.144;8.212;2023-05-19T11:43:47;5.20;;;4.80;;
2486;SDS011;1254;49.144;8.212;2023-05-19T11:46:15;5.67;;;5.20;;
2486;SDS011;1254;49.144;8.212;2023-05-19T11:48:45;4.90;;;4.60;;
2486;SDS011;1254;49.144;8.212;2023-05-19T11:51:15;5.80;;;5.50;;
2486;SDS011;1254;49.144;8.212;2023-05-19T11:53:44;5.30;;;4.90;;
2486;SDS011;1254;49.144;8.212;2023-05-19T11:56:16;4.63;;;4.43;;
2486;SDS011;1254;49.144;8.212;2023-05-19T11:58:44;5.97;;;5.33;;
2486;SDS011;1254;49.144;8.212;2023-05-19T12:01:16;5.93;;;5.00;;
2486;SDS011;1254;49.144;8.212;2023-05-19T12:03:45;10.77;;;5.60;;
2486;SDS011;1254;49.144;8.212;2023-05-19T12:06:15;5.67;;;5.23;;
2486;SDS011;1254;49.144;8.212;2023-05-19T12:08:44;5.23;;;4.90;;
2486;SDS011;1254;49.144;8.212;2023-05-19T12:11:12;5.40;;;5.00;;
2486;SDS011;1254;49.144;8.212;2023-05-19T12:13:41;8.50;;;5.87;;
2486;SDS011;1254;49.144;8.212;2023-05-19T12:16:09;5.03;;;4.73;;
2486;SDS011;1254;49.144;8.212;2023-05-19T12:18:40;5.13;;;4.73;;
2486;SDS011;1254;49.144;8.212;2023-05-19T12:21:08;5.93;;;5.23;;
2486;SDS011;1254;49.144;8.212;2023-05-19T12:23:37;5.40;;;5.10;;
2486;SDS011;1254;49.144;8.212;2023-05-19T12:26:07;5.73;;;5.40;;
2486;SDS011;1254;49.144;8.212;2023-05-19T12:28:35;6.43;;;5.10;;
2486;SDS011;1254;49.144;8.212;2023-05-19T12:31:03;4.80;;;4.50;;
2486;SDS011;1254;49.144;8.212;2023-05-19T12:33:32;6.67;;;6.00;;
2486;SDS011;1254;49.144;8.212;2023-05-19T12:36:02;5.30;;;5.00;;
2486;SDS011;1254;49.144;8.212;2023-05-19T12:38:33;5.83;;;5.50;;
2486;SDS011;1254;49.144;8.212;2023-05-19T12:41:02;13.17;;;5.50;;
2486;SDS011;1254;49.144;8.212;2023-05-19T12:43:31;5.70;;;5.17;;
2486;SDS011;1254;49.144;8.212;2023-05-19T12:46:07;5.50;;;5.03;;
2486;SDS011;1254;49.144;8.212;2023-05-19T12:48:38;5.57;;;5.30;;
2486;SDS011;1254;49.144;8.212;2023-05-19T12:51:09;5.43;;;5.03;;
2486;SDS011;1254;49.144;8.212;2023-05-19T12:53:37;7.53;;;5.43;;
2486;SDS011;1254;49.144;8.212;2023-05-19T12:56:10;5.83;;;5.20;;
2486;SDS011;1254;49.144;8.212;2023-05-19T12:58:39;5.90;;;5.37;;
2486;SDS011;1254;49.144;8.212;2023-05-19T13:01:14;5.97;;;5.47;;
2486;SDS011;1254;49.144;8.212;2023-05-19T13:03:42;5.10;;;4.80;;
2486;SDS011;1254;49.144;8.212;2023-05-19T13:06:12;6.30;;;5.37;;
2486;SDS011;1254;49.144;8.212;2023-05-19T13:08:40;7.10;;;5.80;;
2486;SDS011;1254;49.144;8.212;2023-05-19T13:11:09;9.33;;;5.70;;
2486;SDS011;1254;49.144;8.212;2023-05-19T13:13:37;6.27;;;5.73;;
2486;SDS011;1254;49.144;8.212;2023-05-19T13:16:06;5.90;;;5.50;;
2486;SDS011;1254;49.144;8.212;2023-05-19T13:18:35;8.73;;;5.23;;
2486;SDS011;1254;49.144;8.212;2023-05-19T13:21:04;11.73;;;5.77;;
2486;SDS011;1254;49.144;8.212;2023-05-19T13:23:33;5.87;;;5.30;;
2486;SDS011;1254;49.144;8.212;2023-05-19T13:26:03;7.10;;;5.90;;
2486;SDS011;1254;49.144;8.212;2023-05-19T13:28:32;6.40;;;5.33;;
2486;SDS011;1254;49.144;8.212;2023-05-19T13:31:00;6.30;;;5.80;;
2486;SDS011;1254;49.144;8.212;2023-05-19T13:33:29;5.67;;;5.17;;
2486;SDS011;1254;49.144;8.212;2023-05-19T13:35:57;6.90;;;5.20;;
2486;SDS011;1254;49.144;8.212;2023-05-19T13:38:26;7.57;;;5.20;;
2486;SDS011;1254;49.144;8.212;2023-05-19T13:40:57;6.00;;;5.60;;
2486;SDS011;1254;49.144;8.212;2023-05-19T13:43:25;5.93;;;5.37;;
2486;SDS011;1254;49.144;8.212;2023-05-19T13:45:53;10.00;;;5.43;;
2486;SDS011;1254;49.144;8.212;2023-05-19T13:48:22;5.50;;;5.10;;
2486;SDS011;1254;49.144;8.212;2023-05-19T13:51:09;5.73;;;5.43;;
2486;SDS011;1254;49.144;8.212;2023-05-19T13:53:37;7.83;;;5.27;;
2486;SDS011;1254;49.144;8.212;2023-05-19T13:56:07;6.47;;;5.43;;
2486;SDS011;1254;49.144;8.212;2023-05-19T13:58:37;7.00;;;5.80;;
2486;SDS011;1254;49.144;8.212;2023-05-19T14:01:05;6.23;;;5.63;;
2486;SDS011;1254;49.144;8.212;2023-05-19T14:03:34;5.07;;;4.77;;
2486;SDS011;1254;49.144;8.212;2023-05-19T14:06:03;5.00;;;4.70;;
2486;SDS011;1254;49.144;8.212;2023-05-19T14:08:31;6.20;;;5.60;;
2486;SDS011;1254;49.144;8.212;2023-05-19T14:11:00;5.03;;;4.73;;
2486;SDS011;1254;49.144;8.212;2023-05-19T14:13:32;5.43;;;4.87;;
2486;SDS011;1254;49.144;8.212;2023-05-19T14:16:00;5.53;;;5.10;;
2486;SDS011;1254;49.144;8.212;2023-05-19T14:18:29;6.80;;;5.50;;
2486;SDS011;1254;49.144;8.212;2023-05-19T14:20:58;5.73;;;5.17;;
2486;SDS011;1254;49.144;8.212;2023-05-19T14:23:26;5.57;;;5.17;;
2486;SDS011;1254;49.144;8.212;2023-05-19T14:25:55;5.90;;;5.40;;
2486;SDS011;1254;49.144;8.212;2023-05-19T14:28:24;6.33;;;5.73;;
2486;SDS011;1254;49.144;8.212;2023-05-19T14:30:54;6.30;;;5.70;;
2486;SDS011;1254;49.144;8.212;2023-05-19T14:33:22;7.70;;;5.40;;
2486;SDS011;1254;49.144;8.212;2023-05-19T14:35:51;6.53;;;5.70;;
2486;SDS011;1254;49.144;8.212;2023-05-19T14:38:20;7.70;;;6.03;;
2486;SDS011;1254;49.144;8.212;2023-05-19T14:40:48;8.47;;;6.13;;
2486;SDS011;1254;49.144;8.212;2023-05-19T14:43:16;6.53;;;6.10;;
2486;SDS011;1254;49.144;8.212;2023-05-19T14:45:45;6.07;;;5.43;;
2486;SDS011;1254;49.144;8.212;2023-05-19T14:48:14;6.53;;;5.83;;
2486;SDS011;1254;49.144;8.212;2023-05-19T14:50:43;6.57;;;6.00;;
2486;SDS011;1254;49.144;8.212;2023-05-19T14:53:11;5.40;;;5.10;;
2486;SDS011;1254;49.144;8.212;2023-05-19T14:55:39;5.50;;;5.10;;
2486;SDS011;1254;49.144;8.212;2023-05-19T14:58:08;5.87;;;5.53;;
2486;SDS011;1254;49.144;8.212;2023-05-19T15:00:36;5.73;;;5.27;;
2486;SDS011;1254;49.144;8.212;2023-05-19T15:03:05;6.20;;;5.40;;
2486;SDS011;1254;49.144;8.212;2023-05-19T15:05:35;6.20;;;5.60;;
2486;SDS011;1254;49.144;8.212;2023-05-19T15:08:05;11.17;;;5.57;;
2486;SDS011;1254;49.144;8.212;2023-05-19T15:10:33;5.90;;;5.50;;
2486;SDS011;1254;49.144;8.212;2023-05-19T15:13:01;9.40;;;5.97;;
2486;SDS011;1254;49.144;8.212;2023-05-19T15:15:29;6.23;;;5.43;;
2486;SDS011;1254;49.144;8.212;2023-05-19T15:17:58;5.53;;;5.13;;
2486;SDS011;1254;49.144;8.212;2023-05-19T15:20:26;15.50;;;5.30;;
2486;SDS011;1254;49.144;8.212;2023-05-19T15:22:55;6.63;;;5.17;;
2486;SDS011;1254;49.144;8.212;2023-05-19T15:25:24;5.87;;;5.30;;
2486;SDS011;1254;49.144;8.212;2023-05-19T15:27:52;8.60;;;5.17;;
2486;SDS011;1254;49.144;8.212;2023-05-19T15:30:20;5.80;;;5.40;;
2486;SDS011;1254;49.144;8.212;2023-05-19T15:32:48;9.07;;;6.17;;
2486;SDS011;1254;49.144;8.212;2023-05-19T15:35:16;5.23;;;5.03;;